createdAt,value
2023-02-03T00:01:14.054Z,91.22
2023-02-03T00:03:43.333Z,91.46
2023-02-03T00:06:11.517Z,91.44
2023-02-03T00:08:39.890Z,91.19
2023-02-03T00:11:08.214Z,91.35
2023-02-03T00:13:37.012Z,91.17
2023-02-03T00:16:06.698Z,91.52
2023-02-03T00:18:34.727Z,91.27
2023-02-03T00:21:04.136Z,91.89
2023-02-03T00:23:32.837Z,91.80
2023-02-03T00:26:08.330Z,91.62
2023-02-03T00:28:36.268Z,91.89
2023-02-03T00:31:04.557Z,91.36
2023-02-03T00:33:33.760Z,91.37
2023-02-03T00:36:07.789Z,92.09
2023-02-03T00:38:37.101Z,91.72
2023-02-03T00:41:05.265Z,91.80
2023-02-03T00:43:33.317Z,91.70
2023-02-03T00:46:03.924Z,91.48
2023-02-03T00:48:31.787Z,91.93
2023-02-03T00:50:59.997Z,91.84
2023-02-03T00:53:29.330Z,91.75
2023-02-03T00:55:57.240Z,91.66
2023-02-03T00:58:25.151Z,91.88
2023-02-03T01:00:53.035Z,91.85
2023-02-03T01:03:20.934Z,91.53
2023-02-03T01:05:50.164Z,91.75
2023-02-03T01:08:18.009Z,92.10
2023-02-03T01:10:47.269Z,91.85
2023-02-03T01:13:15.200Z,92.03
2023-02-03T01:15:47.452Z,91.91
2023-02-03T01:18:15.343Z,91.51
2023-02-03T01:20:45.227Z,91.80
2023-02-03T01:23:13.014Z,92.39
2023-02-03T01:25:40.929Z,92.68
2023-02-03T01:28:10.326Z,92.43
2023-02-03T01:30:38.478Z,92.28
2023-02-03T01:33:06.624Z,92.25
2023-02-03T01:35:35.544Z,92.41
2023-02-03T01:38:04.069Z,92.46
2023-02-03T01:40:33.213Z,92.59
2023-02-03T01:43:01.242Z,92.10
2023-02-03T01:45:30.686Z,92.44
2023-02-03T01:48:00.846Z,92.54
2023-02-03T01:50:33.219Z,92.54
2023-02-03T01:53:05.071Z,93.09
2023-02-03T01:55:36.900Z,93.26
2023-02-03T01:58:09.992Z,92.76
2023-02-03T02:00:39.373Z,92.59
2023-02-03T02:03:09.293Z,92.41
2023-02-03T02:05:42.741Z,92.58
2023-02-03T02:08:14.335Z,92.94
2023-02-03T02:10:42.308Z,93.04
2023-02-03T02:13:10.315Z,93.42
2023-02-03T02:15:54.448Z,92.95
2023-02-03T02:18:30.795Z,93.21
2023-02-03T02:21:44.612Z,93.24
2023-02-03T02:24:42.527Z,93.35
2023-02-03T02:27:25.478Z,93.27
2023-02-03T02:30:37.879Z,93.36
2023-02-03T02:33:18.889Z,93.78
2023-02-03T02:35:56.455Z,93.62
2023-02-03T02:38:39.453Z,93.71
2023-02-03T02:41:14.585Z,93.90
2023-02-03T02:43:48.403Z,93.70
2023-02-03T02:46:24.690Z,93.70
2023-02-03T02:49:00.680Z,94.15
2023-02-03T02:51:30.918Z,94.28
2023-02-03T02:54:01.844Z,93.67
2023-02-03T02:56:33.087Z,94.25
2023-02-03T02:59:04.464Z,94.19
2023-02-03T03:01:32.666Z,94.44
2023-02-03T03:04:06.153Z,94.16
2023-02-03T03:06:39.569Z,93.82
2023-02-03T03:09:11.612Z,94.22
2023-02-03T03:11:44.312Z,94.37
2023-02-03T03:14:13.964Z,94.61
2023-02-03T03:16:47.651Z,94.02
2023-02-03T03:19:22.581Z,94.23
2023-02-03T03:21:54.769Z,93.93
2023-02-03T03:24:27.927Z,94.23
2023-02-03T03:27:03.011Z,94.44
2023-02-03T03:29:35.806Z,94.70
2023-02-03T03:32:04.637Z,94.03
2023-02-03T03:34:34.468Z,93.92
2023-02-03T03:37:08.071Z,94.29
2023-02-03T03:39:43.893Z,93.74
2023-02-03T03:42:19.956Z,93.52
2023-02-03T03:44:53.954Z,93.28
2023-02-03T03:47:36.586Z,93.34
2023-02-03T03:50:10.507Z,93.42
2023-02-03T03:52:39.628Z,92.95
2023-02-03T03:55:11.085Z,92.73
2023-02-03T03:57:43.184Z,93.04
2023-02-03T04:00:16.132Z,93.30
2023-02-03T04:02:50.665Z,92.54
2023-02-03T04:05:21.051Z,93.29
2023-02-03T04:07:49.236Z,93.17
2023-02-03T04:10:27.027Z,93.73
2023-02-03T04:12:55.127Z,93.82
2023-02-03T04:15:23.068Z,93.97
2023-02-03T04:17:51.025Z,93.65
2023-02-03T04:20:20.426Z,94.71
2023-02-03T04:22:48.313Z,94.42
2023-02-03T04:25:16.210Z,94.48
2023-02-03T04:27:44.159Z,95.08
2023-02-03T04:30:13.560Z,95.06
2023-02-03T04:32:41.615Z,95.45
2023-02-03T04:35:09.885Z,95.48
2023-02-03T04:37:39.242Z,95.92
2023-02-03T04:40:08.499Z,96.01
2023-02-03T04:42:38.851Z,96.97
2023-02-03T04:45:08.684Z,96.91
2023-02-03T04:47:36.651Z,97.01
2023-02-03T04:50:05.079Z,97.62
2023-02-03T04:52:33.020Z,97.47
2023-02-03T04:55:03.936Z,97.51
2023-02-03T04:57:32.441Z,97.69
2023-02-03T05:00:00.288Z,98.09
2023-02-03T05:02:28.169Z,98.25
2023-02-03T05:04:56.096Z,98.45
2023-02-03T05:07:24.029Z,98.49
2023-02-03T05:09:52.442Z,98.36
2023-02-03T05:12:21.785Z,98.03
2023-02-03T05:14:49.737Z,97.63
2023-02-03T05:17:17.560Z,97.68
2023-02-03T05:19:45.409Z,97.18
2023-02-03T05:22:13.542Z,97.16
2023-02-03T05:24:41.419Z,96.88
2023-02-03T05:27:09.424Z,96.69
2023-02-03T05:29:38.643Z,96.60
2023-02-03T05:32:07.009Z,96.67
2023-02-03T05:34:35.104Z,96.47
2023-02-03T05:37:03.895Z,97.08
2023-02-03T05:39:31.743Z,96.71
2023-02-03T05:41:59.255Z,96.45
2023-02-03T05:44:29.143Z,96.76
2023-02-03T05:46:59.918Z,96.12
2023-02-03T05:49:27.844Z,96.36
2023-02-03T05:51:56.896Z,96.22
2023-02-03T05:54:24.800Z,96.03
2023-02-03T05:56:52.975Z,96.07
2023-02-03T05:59:20.871Z,95.74
2023-02-03T06:01:48.759Z,95.40
2023-02-03T06:04:18.255Z,95.17
2023-02-03T06:06:47.756Z,95.28
2023-02-03T06:09:15.693Z,94.76
2023-02-03T06:11:43.687Z,94.64
2023-02-03T06:14:11.525Z,94.27
2023-02-03T06:16:39.510Z,94.84
2023-02-03T06:19:07.498Z,94.14
2023-02-03T06:21:36.697Z,94.46
2023-02-03T06:24:05.176Z,94.21
2023-02-03T06:26:33.083Z,94.54
2023-02-03T06:29:01.003Z,93.83
2023-02-03T06:31:29.100Z,93.67
2023-02-03T06:33:57.488Z,93.81
2023-02-03T06:36:25.380Z,93.78
2023-02-03T06:38:55.545Z,93.79
2023-02-03T06:41:27.523Z,94.05
2023-02-03T06:43:55.429Z,93.74
2023-02-03T06:46:23.484Z,94.38
2023-02-03T06:48:51.369Z,94.70
2023-02-03T06:51:19.276Z,95.19
2023-02-03T06:53:47.512Z,95.23
2023-02-03T06:56:17.177Z,95.12
2023-02-03T06:58:45.550Z,95.28
2023-02-03T07:01:15.651Z,95.19
2023-02-03T07:03:43.599Z,95.99
2023-02-03T07:06:11.583Z,96.51
2023-02-03T07:08:39.477Z,96.02
2023-02-03T07:11:07.322Z,96.60
2023-02-03T07:13:36.740Z,96.21
2023-02-03T07:16:04.950Z,96.20
2023-02-03T07:18:48.411Z,96.66
2023-02-03T07:21:17.564Z,96.54
2023-02-03T07:23:48.444Z,96.08
2023-02-03T07:26:16.973Z,96.62
2023-02-03T07:28:46.535Z,97.32
2023-02-03T07:31:14.479Z,97.25
2023-02-03T07:33:42.405Z,97.30
2023-02-03T07:36:11.938Z,97.53
2023-02-03T07:38:39.959Z,97.34
2023-02-03T07:41:08.191Z,98.27
2023-02-03T07:43:36.067Z,97.64
2023-02-03T07:46:05.779Z,97.80
2023-02-03T07:48:33.705Z,97.71
2023-02-03T07:51:01.672Z,97.52
2023-02-03T07:53:29.721Z,97.32
2023-02-03T07:56:01.090Z,97.32
2023-02-03T07:58:29.086Z,98.19
2023-02-03T08:00:58.038Z,97.73
2023-02-03T08:03:27.427Z,98.35
2023-02-03T08:05:55.577Z,98.08
2023-02-03T08:08:23.444Z,97.59
2023-02-03T08:10:51.275Z,98.08
2023-02-03T08:13:19.089Z,98.53
2023-02-03T08:15:46.948Z,98.49
2023-02-03T08:18:15.059Z,98.83
2023-02-03T08:20:44.303Z,98.51
2023-02-03T08:23:12.544Z,99.16
2023-02-03T08:25:40.575Z,99.04
2023-02-03T08:28:08.561Z,99.17
2023-02-03T08:30:36.538Z,98.88
2023-02-03T08:33:05.082Z,99.46
2023-02-03T08:35:33.633Z,99.14
2023-02-03T08:38:02.879Z,99.16
2023-02-03T08:40:31.121Z,99.02
2023-02-03T08:42:59.302Z,99.62
2023-02-03T08:45:27.219Z,99.25
2023-02-03T08:47:55.140Z,99.64
2023-02-03T08:50:22.994Z,99.26
2023-02-03T08:52:50.817Z,99.84
2023-02-03T08:55:20.166Z,100.00
2023-02-03T08:57:50.149Z,100.00
2023-02-03T09:00:18.879Z,100.00
2023-02-03T09:02:46.719Z,100.00
2023-02-03T09:05:15.923Z,100.00
2023-02-03T09:07:43.892Z,100.00
2023-02-03T09:10:12.050Z,100.00
2023-02-03T09:12:41.284Z,100.00
2023-02-03T09:15:10.044Z,100.00
2023-02-03T09:17:37.856Z,100.00
2023-02-03T09:20:06.635Z,100.00
2023-02-03T09:22:34.585Z,100.00
2023-02-03T09:25:02.696Z,100.00
2023-02-03T09:27:30.549Z,99.46
2023-02-03T09:29:59.950Z,100.00
2023-02-03T09:32:27.831Z,99.98
2023-02-03T09:34:55.715Z,100.00
2023-02-03T09:37:23.621Z,100.00
2023-02-03T09:39:51.423Z,100.00
2023-02-03T09:42:51.144Z,100.00
2023-02-03T09:45:26.626Z,100.00
2023-02-03T09:47:58.185Z,100.00
2023-02-03T09:50:29.337Z,99.81
2023-02-03T09:52:59.853Z,100.00
2023-02-03T09:55:36.609Z,99.93
2023-02-03T09:58:09.810Z,100.00
2023-02-03T10:00:44.593Z,100.00
2023-02-03T10:03:22.825Z,99.07
2023-02-03T10:06:04.859Z,99.12
2023-02-03T10:08:47.982Z,98.69
2023-02-03T10:11:24.135Z,98.69
2023-02-03T10:14:05.071Z,97.98
2023-02-03T10:16:54.946Z,97.65
2023-02-03T10:19:28.103Z,97.91
2023-02-03T10:21:59.221Z,97.44
2023-02-03T10:24:38.740Z,98.42
2023-02-03T10:27:07.403Z,96.70
2023-02-03T10:29:40.654Z,94.90
2023-02-03T10:32:11.760Z,95.05
2023-02-03T10:34:40.918Z,94.08
2023-02-03T10:37:19.912Z,94.57
2023-02-03T10:39:50.323Z,93.91
2023-02-03T10:42:19.383Z,93.19
2023-02-03T10:44:50.529Z,93.38
2023-02-03T10:47:26.863Z,94.59
2023-02-03T10:49:58.159Z,93.94
2023-02-03T10:52:29.216Z,93.52
2023-02-03T10:54:59.331Z,93.63
2023-02-03T10:57:30.557Z,93.00
2023-02-03T11:00:08.986Z,92.92
2023-02-03T11:02:38.609Z,92.57
2023-02-03T11:05:11.901Z,92.83
2023-02-03T11:07:39.770Z,93.03
2023-02-03T11:10:29.899Z,92.12
2023-02-03T11:13:13.419Z,92.20
2023-02-03T11:15:58.604Z,92.17
2023-02-03T11:18:55.127Z,93.19
2023-02-03T11:21:26.451Z,91.83
2023-02-03T11:24:02.731Z,91.46
2023-02-03T11:26:34.305Z,90.60
2023-02-03T11:29:04.644Z,90.59
2023-02-03T11:31:35.325Z,91.34
2023-02-03T11:34:07.295Z,91.60
2023-02-03T11:36:36.683Z,91.34
2023-02-03T11:39:22.467Z,90.58
2023-02-03T11:41:50.751Z,90.64
2023-02-03T11:44:22.286Z,90.44
2023-02-03T11:46:54.221Z,90.74
2023-02-03T11:49:42.656Z,91.34
2023-02-03T11:52:29.404Z,90.79
2023-02-03T11:55:08.814Z,91.18
2023-02-03T11:57:45.659Z,91.10
2023-02-03T12:00:29.277Z,90.05
2023-02-03T12:03:31.978Z,89.96
2023-02-03T12:06:29.965Z,89.64
2023-02-03T12:09:20.716Z,88.28
2023-02-03T12:12:18.811Z,88.03
2023-02-03T12:15:00.483Z,88.51
2023-02-03T12:17:41.609Z,88.91
2023-02-03T12:20:41.092Z,87.22
2023-02-03T12:23:23.438Z,86.69
2023-02-03T12:26:05.876Z,87.25
2023-02-03T12:28:47.090Z,86.36
2023-02-03T12:31:19.662Z,85.72
2023-02-03T12:33:53.524Z,86.72
2023-02-03T12:36:26.645Z,86.56
2023-02-03T12:39:01.620Z,86.48
2023-02-03T12:41:33.183Z,86.33
2023-02-03T12:44:05.810Z,84.55
2023-02-03T12:46:41.745Z,84.48
2023-02-03T12:49:17.492Z,85.45
2023-02-03T12:51:50.868Z,83.98
2023-02-03T12:54:34.156Z,83.64
2023-02-03T12:57:15.498Z,84.71
2023-02-03T12:59:45.177Z,83.57
2023-02-03T13:02:19.787Z,84.02
2023-02-03T13:04:55.989Z,83.95
2023-02-03T13:07:29.010Z,83.17
2023-02-03T13:10:05.143Z,82.64
2023-02-03T13:12:37.147Z,82.88
2023-02-03T13:15:20.079Z,83.89
2023-02-03T13:17:54.269Z,83.93
2023-02-03T13:20:24.619Z,83.31
2023-02-03T13:22:53.294Z,82.65
2023-02-03T13:25:27.908Z,82.56
2023-02-03T13:28:08.874Z,83.14
2023-02-03T13:31:06.502Z,82.89
2023-02-03T13:33:52.142Z,82.01
2023-02-03T13:36:42.684Z,82.29
2023-02-03T13:39:30.203Z,82.45
2023-02-03T13:42:15.093Z,81.69
2023-02-03T13:44:45.607Z,83.10
2023-02-03T13:47:17.671Z,83.25
2023-02-03T13:49:50.335Z,82.45
2023-02-03T13:52:32.079Z,82.90
2023-02-03T13:55:01.129Z,83.49
2023-02-03T13:57:35.553Z,83.67
2023-02-03T14:00:05.843Z,83.82
2023-02-03T14:02:46.437Z,83.31
2023-02-03T14:05:43.310Z,83.26
2023-02-03T14:08:53.989Z,84.86
2023-02-03T14:11:46.840Z,84.08
2023-02-03T14:14:57.141Z,85.03
2023-02-03T14:17:55.622Z,84.89
2023-02-03T14:20:59.073Z,84.94
2023-02-03T14:23:35.527Z,85.31
2023-02-03T14:26:04.316Z,85.88
2023-02-03T14:28:40.121Z,85.86
2023-02-03T14:31:16.506Z,86.29
2023-02-03T14:34:09.427Z,85.54
2023-02-03T14:36:44.601Z,87.33
2023-02-03T14:40:01.449Z,86.85
2023-02-03T14:42:44.275Z,86.89
2023-02-03T14:45:30.665Z,87.00
2023-02-03T14:48:15.263Z,87.70
2023-02-03T14:50:59.422Z,87.57
2023-02-03T14:54:12.003Z,87.82
2023-02-03T14:57:05.674Z,88.70
2023-02-03T14:59:40.735Z,89.21
2023-02-03T15:02:14.959Z,89.62
2023-02-03T15:04:45.774Z,90.10
2023-02-03T15:07:37.295Z,90.48
2023-02-03T15:10:13.077Z,91.57
2023-02-03T15:12:46.439Z,91.94
2023-02-03T15:15:15.848Z,92.21
2023-02-03T15:17:43.738Z,91.93
2023-02-03T15:20:33.652Z,92.40
2023-02-03T15:23:02.522Z,92.59
2023-02-03T15:25:32.998Z,92.52
2023-02-03T15:28:17.069Z,92.66
2023-02-03T15:30:45.606Z,92.49
2023-02-03T15:33:18.118Z,93.34
2023-02-03T15:35:50.634Z,93.24
2023-02-03T15:38:26.507Z,93.45
2023-02-03T15:40:58.066Z,93.49
2023-02-03T15:43:32.433Z,93.50
2023-02-03T15:46:08.735Z,93.22
2023-02-03T15:48:43.400Z,93.24
2023-02-03T15:51:17.481Z,93.94
2023-02-03T15:53:53.146Z,93.53
2023-02-03T15:56:26.625Z,93.84
2023-02-03T15:58:55.193Z,93.60
2023-02-03T16:01:26.648Z,93.95
2023-02-03T16:03:56.950Z,94.23
2023-02-03T16:06:35.789Z,94.22
2023-02-03T16:09:05.091Z,94.47
2023-02-03T16:11:35.158Z,94.65
2023-02-03T16:14:04.925Z,94.62
2023-02-03T16:16:38.027Z,94.97
2023-02-03T16:19:07.619Z,94.95
2023-02-03T16:21:38.722Z,94.92
2023-02-03T16:24:07.570Z,94.62
2023-02-03T16:26:38.553Z,94.96
2023-02-03T16:29:31.581Z,94.67
2023-02-03T16:32:18.016Z,94.22
2023-02-03T16:35:03.741Z,94.38
2023-02-03T16:37:53.199Z,94.19
2023-02-03T16:40:40.536Z,94.66
2023-02-03T16:43:30.828Z,94.55
2023-02-03T16:46:21.167Z,94.86
2023-02-03T16:49:37.775Z,95.00
2023-02-03T16:52:30.109Z,95.09
2023-02-03T16:55:12.988Z,95.28
2023-02-03T16:57:50.830Z,95.53
2023-02-03T17:00:46.901Z,95.25
2023-02-03T17:03:45.031Z,95.37
2023-02-03T17:06:36.105Z,95.18
2023-02-03T17:09:13.434Z,95.17
2023-02-03T17:12:17.921Z,94.88
2023-02-03T17:14:55.909Z,95.72
2023-02-03T17:17:32.409Z,95.01
2023-02-03T17:20:22.303Z,95.40
2023-02-03T17:23:05.122Z,95.54
2023-02-03T17:25:45.917Z,94.65
2023-02-03T17:28:29.506Z,95.07
2023-02-03T17:31:17.890Z,95.12
2023-02-03T17:33:58.204Z,95.50
2023-02-03T17:37:01.215Z,96.20
2023-02-03T17:53:53.677Z,97.65
2023-02-03T17:56:23.558Z,97.81
2023-02-03T17:58:56.510Z,98.35
2023-02-03T18:01:27.065Z,98.05
2023-02-03T18:03:58.130Z,98.25
2023-02-03T18:06:28.024Z,97.58
2023-02-03T18:09:01.116Z,97.41
2023-02-03T18:11:30.417Z,97.52
2023-02-03T18:13:58.445Z,97.47
2023-02-03T18:16:32.481Z,97.70
2023-02-03T18:19:02.793Z,97.25
2023-02-03T18:21:32.396Z,97.38
2023-02-03T18:24:01.826Z,97.22
2023-02-03T18:26:32.662Z,97.29
2023-02-03T18:29:00.619Z,97.30
2023-02-03T18:31:30.199Z,97.10
2023-02-03T18:34:02.427Z,97.31
2023-02-03T18:36:30.530Z,96.75
2023-02-03T18:38:58.489Z,96.84
2023-02-03T18:41:27.185Z,96.96
2023-02-03T18:43:55.439Z,96.98
2023-02-03T18:46:24.829Z,97.02
2023-02-03T18:48:56.123Z,96.90
2023-02-03T18:51:25.620Z,96.94
2023-02-03T18:53:58.453Z,96.60
2023-02-03T18:56:34.852Z,96.93
2023-02-03T18:59:05.751Z,96.81
2023-02-03T19:01:34.197Z,97.20
2023-02-03T19:04:04.799Z,96.95
2023-02-03T19:06:34.620Z,97.04
2023-02-03T19:09:03.265Z,97.91
2023-02-03T19:11:31.221Z,97.09
2023-02-03T19:13:59.096Z,97.70
2023-02-03T19:16:27.272Z,97.63
2023-02-03T19:18:55.188Z,98.19
2023-02-03T19:21:24.424Z,97.99
2023-02-03T19:23:52.311Z,98.29
2023-02-03T19:26:20.149Z,97.99
2023-02-03T19:28:48.012Z,98.00
2023-02-03T19:31:16.412Z,97.75
2023-02-03T19:33:44.705Z,98.08
2023-02-03T19:36:12.903Z,98.78
2023-02-03T19:38:42.173Z,98.37
2023-02-03T19:41:11.752Z,98.10
2023-02-03T19:43:40.011Z,98.37
2023-02-03T19:46:08.191Z,98.57
2023-02-03T19:48:36.718Z,98.72
2023-02-03T19:51:04.787Z,99.30
2023-02-03T19:53:33.014Z,99.64
2023-02-03T19:56:02.307Z,100.00
2023-02-03T19:58:30.708Z,99.99
2023-02-03T20:00:58.667Z,100.00
2023-02-03T20:03:26.719Z,100.00
2023-02-03T20:05:54.651Z,100.00
2023-02-03T20:08:22.542Z,100.00
2023-02-03T20:10:51.426Z,100.00
2023-02-03T20:13:20.772Z,100.00
2023-02-03T20:15:48.760Z,100.00
2023-02-03T20:18:16.730Z,100.00
2023-02-03T20:20:44.649Z,100.00
2023-02-03T20:23:12.577Z,100.00
2023-02-03T20:25:40.428Z,100.00
2023-02-03T20:28:08.615Z,100.00
2023-02-03T20:30:38.697Z,100.00
2023-02-03T20:33:07.042Z,100.00
2023-02-03T20:35:35.113Z,100.00
2023-02-03T20:38:03.050Z,99.92
2023-02-03T20:40:31.244Z,99.77
2023-02-03T20:43:03.137Z,99.78
2023-02-03T20:45:31.433Z,99.43
2023-02-03T20:48:01.136Z,98.88
2023-02-03T20:50:37.474Z,99.48
2023-02-03T20:53:14.106Z,98.40
2023-02-03T20:55:42.087Z,98.22
2023-02-03T20:58:19.150Z,97.60
2023-02-03T21:00:47.814Z,97.66
2023-02-03T21:03:36.913Z,97.84
2023-02-03T21:06:13.055Z,98.23
2023-02-03T21:08:40.935Z,97.01
2023-02-03T21:11:12.540Z,97.28
2023-02-03T21:13:41.474Z,97.43
2023-02-03T21:16:17.376Z,96.57
2023-02-03T21:18:50.344Z,96.01
2023-02-03T21:21:24.761Z,95.81
2023-02-03T21:23:53.913Z,95.41
2023-02-03T21:26:23.956Z,95.61
2023-02-03T21:28:53.368Z,95.47
2023-02-03T21:31:27.930Z,96.05
2023-02-03T21:33:59.936Z,95.30
2023-02-03T21:36:31.297Z,95.49
2023-02-03T21:39:00.600Z,95.05
2023-02-03T21:41:33.861Z,95.41
2023-02-03T21:44:02.673Z,95.08
2023-02-03T21:46:33.834Z,95.30
2023-02-03T21:49:04.870Z,95.86
2023-02-03T21:51:36.319Z,96.09
2023-02-03T21:54:23.626Z,95.74
2023-02-03T21:56:51.974Z,96.10
2023-02-03T21:59:22.052Z,95.93
2023-02-03T22:01:53.008Z,95.67
2023-02-03T22:04:22.659Z,96.78
2023-02-03T22:06:53.907Z,96.14
2023-02-03T22:09:23.741Z,96.96
2023-02-03T22:11:52.284Z,96.65
2023-02-03T22:14:21.779Z,96.67
2023-02-03T22:16:51.172Z,96.42
2023-02-03T22:19:19.403Z,96.98
2023-02-03T22:21:50.925Z,96.97
2023-02-03T22:24:19.150Z,97.15
2023-02-03T22:26:47.384Z,97.45
2023-02-03T22:29:15.363Z,97.77
2023-02-03T22:31:43.496Z,98.01
2023-02-03T22:34:11.430Z,98.45
2023-02-03T22:36:39.333Z,98.15
2023-02-03T22:39:08.603Z,98.66
2023-02-03T22:41:36.877Z,98.25
2023-02-03T22:44:04.801Z,97.97
2023-02-03T22:46:32.761Z,97.56
2023-02-03T22:49:00.785Z,97.40
2023-02-03T22:51:28.694Z,97.08
2023-02-03T22:53:56.627Z,97.59
2023-02-03T22:56:25.930Z,97.07
2023-02-03T22:58:53.758Z,97.41
2023-02-03T23:01:21.711Z,97.82
2023-02-03T23:03:49.577Z,98.33
2023-02-03T23:06:17.501Z,98.65
2023-02-03T23:08:45.386Z,99.43
2023-02-03T23:11:13.230Z,100.00
2023-02-03T23:13:42.442Z,99.87
2023-02-03T23:16:10.415Z,100.00
2023-02-03T23:18:38.301Z,100.00
2023-02-03T23:21:06.564Z,100.00
2023-02-03T23:23:34.571Z,99.96
2023-02-03T23:26:02.429Z,99.56
2023-02-03T23:28:30.313Z,99.58
2023-02-03T23:30:59.749Z,99.60
2023-02-03T23:33:27.840Z,99.77
2023-02-03T23:35:55.567Z,99.80
2023-02-03T23:38:23.436Z,100.00
2023-02-03T23:40:51.638Z,99.98
2023-02-03T23:43:19.586Z,100.00
2023-02-03T23:45:47.543Z,100.00
2023-02-03T23:48:17.706Z,100.00
2023-02-03T23:50:45.620Z,100.00
2023-02-03T23:53:13.555Z,100.00
2023-02-03T23:55:41.420Z,100.00
2023-02-03T23:58:09.304Z,100.00
